Time;durP1;ratioP1;P1;durP2;ratioP2;P2;SDS_P1;SDS_P2;PMS_P1;PMS_P2;Temp;Humidity;BMP_temperature;BMP_pressure;BME280_temperature;BME280_humidity;BME280_pressure;Samples;Min_cycle;Max_cycle;Signal;HPM_P1;HPM_P2
2021/01/02 00:00:07;;;;;;;9.13;3.15;;;10.20;99.90;;;;;;5011723;28;20460;-66
2021/01/02 00:02:54;;;;;;;8.23;2.85;;;10.20;99.90;;;;;;5010764;28;20050;-66
2021/01/02 00:05:32;;;;;;;8.10;3.15;;;10.10;99.90;;;;;;5010950;28;20410;-66
2021/01/02 00:08:14;;;;;;;7.85;3.20;;;10.10;99.90;;;;;;5011431;28;20544;-66
2021/01/02 00:10:50;;;;;;;9.77;2.72;;;10.10;99.90;;;;;;5011180;28;20500;-66
2021/01/02 00:13:36;;;;;;;;;;;10.10;99.90;;;;;;5011852;28;20502;-66
2021/01/02 00:16:21;;;;;;;10.93;3.88;;;10.10;99.90;;;;;;5011208;28;19928;-67
2021/01/02 00:19:07;;;;;;;7.18;3.00;;;10.00;99.90;;;;;;5010410;28;20050;-66
2021/01/02 00:21:52;;;;;;;5.13;2.03;;;10.00;99.90;;;;;;5010987;28;20054;-66
2021/01/02 00:24:40;;;;;;;5.70;2.05;;;10.00;99.90;;;;;;5004514;28;20058;-67
2021/01/02 00:27:10;;;;;;;6.97;2.63;;;9.90;99.90;;;;;;5002646;28;20057;-67
2021/01/02 00:29:46;;;;;;;7.50;1.33;;;9.90;99.90;;;;;;5010485;28;20418;-67
2021/01/02 00:32:25;;;;;;;8.80;2.08;;;9.90;99.90;;;;;;5010641;28;20129;-66
2021/01/02 00:35:14;;;;;;;9.57;2.38;;;10.00;99.90;;;;;;5010103;28;20058;-67
2021/01/02 00:37:50;;;;;;;6.85;1.65;;;10.00;99.90;;;;;;5011440;28;20140;-66
2021/01/02 00:40:19;;;;;;;6.35;2.15;;;10.00;99.90;;;;;;5010421;28;20050;-66
2021/01/02 00:42:49;;;;;;;7.03;1.90;;;10.00;99.90;;;;;;5010541;28;20062;-66
2021/01/02 00:45:22;;;;;;;4.30;1.70;;;10.00;99.90;;;;;;5008866;28;20134;-66
2021/01/02 00:47:52;;;;;;;5.18;0.95;;;9.90;99.90;;;;;;5010085;28;20042;-66
2021/01/02 00:50:26;;;;;;;5.72;1.95;;;9.90;99.90;;;;;;5011239;28;20124;-66
2021/01/02 00:53:46;;;;;;;7.25;1.80;;;9.90;99.90;;;;;;5007510;28;20046;-67
2021/01/02 00:56:29;;;;;;;9.27;1.60;;;9.80;99.90;;;;;;4968976;28;20146;-67
2021/01/02 00:59:31;;;;;;;2.38;1.25;;;9.80;99.90;;;;;;4999697;28;20088;-67
2021/01/02 01:02:44;;;;;;;8.75;1.98;;;9.80;99.90;;;;;;5007493;28;20506;-67
2021/01/02 01:05:23;;;;;;;3.20;0.77;;;9.80;99.90;;;;;;5020636;28;20498;-67
2021/01/02 01:07:54;;;;;;;4.07;0.90;;;9.80;99.90;;;;;;5015600;28;20060;-67
2021/01/02 01:10:26;;;;;;;7.43;1.67;;;9.90;99.90;;;;;;5009149;28;20453;-67
2021/01/02 01:12:58;;;;;;;6.85;0.85;;;9.90;99.90;;;;;;5010302;28;20056;-66
2021/01/02 01:15:27;;;;;;;7.40;0.88;;;9.90;99.90;;;;;;5009861;28;20103;-67
2021/01/02 01:18:20;;;;;;;8.68;2.17;;;9.90;99.90;;;;;;5010682;28;20057;-67
2021/01/02 01:20:55;;;;;;;27.55;3.70;;;10.00;99.90;;;;;;4990628;28;20135;-66
2021/01/02 01:23:27;;;;;;;6.00;1.40;;;9.90;99.90;;;;;;4991406;28;20134;-67
2021/01/02 01:26:26;;;;;;;7.05;1.95;;;10.00;99.90;;;;;;4989733;28;20452;-67
2021/01/02 01:28:59;;;;;;;5.87;2.17;;;10.00;99.90;;;;;;5002735;28;20075;-68
2021/01/02 01:31:54;;;;;;;6.38;1.95;;;10.00;99.90;;;;;;5010215;28;20308;-68
2021/01/02 01:34:23;;;;;;;5.75;1.00;;;10.00;99.90;;;;;;5008383;28;20057;-68
2021/01/02 01:36:51;;;;;;;6.72;0.98;;;10.00;99.90;;;;;;5010382;28;20490;-67
2021/01/02 01:39:24;;;;;;;2.75;0.80;;;10.00;99.90;;;;;;5010514;28;20054;-66
2021/01/02 01:42:05;;;;;;;6.70;1.33;;;10.00;99.90;;;;;;5009766;28;20042;-67
2021/01/02 01:44:48;;;;;;;4.93;0.65;;;10.00;99.90;;;;;;5004969;28;20061;-67
2021/01/02 01:47:19;;;;;;;6.72;2.47;;;10.00;99.90;;;;;;5007390;28;20099;-67
2021/01/02 01:50:19;;;;;;;10.00;1.90;;;10.00;99.90;;;;;;4992916;28;20104;-68
2021/01/02 01:53:35;;;;;;;8.63;0.98;;;10.00;99.90;;;;;;5009536;28;20140;-67
2021/01/02 01:56:14;;;;;;;2.80;1.10;;;10.00;99.90;;;;;;5007596;28;20058;-67
2021/01/02 01:58:53;;;;;;;6.75;0.95;;;10.10;99.90;;;;;;5010354;28;20509;-67
2021/01/02 02:01:25;;;;;;;6.15;1.38;;;10.10;99.90;;;;;;5008775;28;20054;-67
2021/01/02 02:04:25;;;;;;;5.47;0.80;;;10.10;99.90;;;;;;5008716;28;20068;-67
2021/01/02 02:06:59;;;;;;;8.02;0.60;;;10.10;99.90;;;;;;4990612;28;20125;-67
2021/01/02 02:09:42;;;;;;;4.40;0.98;;;10.10;99.90;;;;;;4990919;28;20057;-67
2021/01/02 02:12:21;;;;;;;1.42;0.40;;;10.10;99.90;;;;;;4997376;28;20133;-68
2021/01/02 02:15:01;;;;;;;4.70;1.00;;;10.10;99.90;;;;;;5004462;28;20077;-67
2021/01/02 02:17:42;;;;;;;3.30;0.68;;;10.10;99.90;;;;;;4990504;28;20046;-68
2021/01/02 02:20:12;;;;;;;3.92;0.80;;;10.20;99.90;;;;;;4990242;28;20468;-68
2021/01/02 02:22:41;;;;;;;11.70;2.33;;;10.20;99.90;;;;;;5007372;28;20058;-67
2021/01/02 02:25:12;;;;;;;13.02;1.67;;;10.20;99.90;;;;;;5008809;28;20050;-67
2021/01/02 02:27:46;;;;;;;7.50;1.20;;;10.20;99.90;;;;;;5009942;28;20054;-67
2021/01/02 02:30:32;;;;;;;9.77;2.45;;;10.20;99.90;;;;;;5009190;28;20054;-66
2021/01/02 02:33:08;;;;;;;5.18;1.58;;;10.20;99.90;;;;;;5000343;28;20058;-67
2021/01/02 02:35:36;;;;;;;6.40;1.08;;;10.10;99.90;;;;;;5010024;28;20050;-67
2021/01/02 02:38:04;;;;;;;6.18;0.80;;;10.20;99.90;;;;;;5010047;28;20115;-68
2021/01/02 02:40:32;;;;;;;3.47;0.73;;;10.10;99.90;;;;;;5009534;28;20058;-67
2021/01/02 02:43:03;;;;;;;3.15;0.85;;;10.20;99.90;;;;;;5008716;28;20132;-67
2021/01/02 02:45:31;;;;;;;5.13;2.15;;;10.20;99.90;;;;;;5008599;28;20070;-67
2021/01/02 02:48:04;;;;;;;14.00;2.50;;;10.10;99.90;;;;;;5009344;28;20494;-67
2021/01/02 02:50:33;;;;;;;9.82;2.08;;;10.20;99.90;;;;;;5009600;28;20046;-67
2021/01/02 02:53:05;;;;;;;8.90;1.70;;;10.20;99.90;;;;;;5012524;28;20046;-67
2021/01/02 02:55:44;;;;;;;6.70;1.50;;;10.20;99.90;;;;;;4998926;28;20422;-68
2021/01/02 02:58:13;;;;;;;16.35;3.08;;;10.30;99.90;;;;;;4997580;28;20062;-68
2021/01/02 03:00:41;;;;;;;22.73;9.52;;;10.30;99.90;;;;;;4993306;28;20058;-67
2021/01/02 03:03:10;;;;;;;23.90;13.32;;;10.30;99.90;;;;;;4993291;28;20107;-67
2021/01/02 03:05:40;;;;;;;14.77;8.90;;;10.40;99.90;;;;;;4992502;28;20415;-67
2021/01/02 03:08:08;;;;;;;12.68;6.32;;;10.40;99.90;;;;;;4993160;28;20066;-67
2021/01/02 03:10:35;;;;;;;9.25;4.15;;;10.40;99.90;;;;;;5008048;28;20499;-67
2021/01/02 03:13:03;;;;;;;20.17;4.43;;;10.40;99.90;;;;;;4993221;28;20134;-67
2021/01/02 03:15:39;;;;;;;12.27;3.17;;;10.40;99.90;;;;;;5005217;28;20107;-67
2021/01/02 03:18:07;;;;;;;7.43;2.78;;;10.40;99.90;;;;;;5012298;28;20130;-68
2021/01/02 03:20:35;;;;;;;19.45;4.28;;;10.40;99.90;;;;;;5012551;28;20064;-67
2021/01/02 03:23:04;;;;;;;17.35;14.27;;;10.50;99.90;;;;;;5012577;28;20140;-68
2021/01/02 03:25:32;;;;;;;22.60;19.52;;;10.40;99.90;;;;;;4996739;28;20046;-68
2021/01/02 03:27:59;;;;;;;16.38;9.10;;;10.50;99.90;;;;;;4991729;28;20047;-67
2021/01/02 03:30:27;;;;;;;12.77;7.32;;;10.40;99.90;;;;;;4992836;28;20100;-68
2021/01/02 03:32:56;;;;;;;16.05;9.10;;;10.40;99.90;;;;;;4992773;28;20043;-68
2021/01/02 03:35:23;;;;;;;17.67;6.60;;;10.40;99.90;;;;;;5004838;28;20046;-67
2021/01/02 03:37:51;;;;;;;12.15;3.47;;;10.40;99.90;;;;;;4995375;28;20142;-67
2021/01/02 03:40:18;;;;;;;8.00;2.38;;;10.40;99.90;;;;;;4992654;28;20579;-67
2021/01/02 03:42:47;;;;;;;6.40;0.98;;;10.40;99.90;;;;;;5003868;28;20061;-67
2021/01/02 03:45:17;;;;;;;6.28;1.52;;;10.40;99.90;;;;;;5009528;28;20133;-68
2021/01/02 03:47:46;;;;;;;10.73;0.80;;;10.40;99.90;;;;;;5012194;28;20046;-67
2021/01/02 03:50:15;;;;;;;10.77;1.42;;;10.40;99.90;;;;;;5012118;28;20046;-67
2021/01/02 03:52:43;;;;;;;8.07;1.40;;;10.40;99.90;;;;;;5012034;28;20054;-67
2021/01/02 03:55:14;;;;;;;5.10;1.17;;;10.40;99.90;;;;;;5000737;28;20453;-67
2021/01/02 03:57:43;;;;;;;6.40;1.63;;;10.40;99.90;;;;;;4992511;28;20059;-67
2021/01/02 04:00:12;;;;;;;6.18;1.23;;;10.40;99.90;;;;;;4991286;28;20071;-67
2021/01/02 04:02:41;;;;;;;10.38;1.55;;;10.40;99.90;;;;;;4992352;28;20081;-67
2021/01/02 04:05:09;;;;;;;8.85;2.53;;;10.40;99.90;;;;;;5001422;28;20065;-68
2021/01/02 04:07:40;;;;;;;5.25;1.05;;;10.40;99.90;;;;;;5011597;28;20079;-67
2021/01/02 04:10:11;;;;;;;6.75;1.20;;;10.50;99.90;;;;;;5012157;28;20050;-67
2021/01/02 04:12:39;;;;;;;5.72;0.77;;;10.40;99.90;;;;;;5011974;28;20414;-67
2021/01/02 04:15:07;;;;;;;5.20;1.20;;;10.40;99.90;;;;;;5001551;28;20061;-68
2021/01/02 04:17:35;;;;;;;7.45;0.98;;;10.40;99.90;;;;;;4992177;28;20141;-67
2021/01/02 04:20:05;;;;;;;4.18;1.17;;;10.40;99.90;;;;;;4992164;28;20081;-67
2021/01/02 04:22:33;;;;;;;5.68;1.25;;;10.30;99.90;;;;;;4992050;28;20046;-67
2021/01/02 04:25:00;;;;;;;4.82;0.90;;;10.20;99.90;;;;;;4991742;28;20081;-68
2021/01/02 04:27:29;;;;;;;5.88;0.80;;;10.20;99.90;;;;;;4991879;28;20046;-67
2021/01/02 04:29:57;;;;;;;7.05;1.85;;;10.10;99.90;;;;;;4991953;28;20499;-67
2021/01/02 04:32:25;;;;;;;4.15;0.90;;;10.10;99.90;;;;;;4991940;28;20054;-67
2021/01/02 04:34:53;;;;;;;4.38;1.73;;;10.00;99.90;;;;;;4998080;28;20097;-67
2021/01/02 04:37:26;;;;;;;6.43;0.98;;;10.00;99.90;;;;;;5011033;28;20054;-67
2021/01/02 04:39:54;;;;;;;16.67;1.45;;;10.00;99.90;;;;;;5011465;28;20054;-67
2021/01/02 04:42:24;;;;;;;5.13;1.20;;;10.10;99.90;;;;;;5011280;28;20046;-67
2021/01/02 04:44:55;;;;;;;6.05;1.25;;;10.10;99.90;;;;;;5013992;28;20049;-68
2021/01/02 04:47:28;;;;;;;5.93;1.52;;;10.00;99.90;;;;;;5013773;28;20050;-67
2021/01/02 04:49:59;;;;;;;5.38;1.77;;;10.00;99.90;;;;;;5010185;28;20046;-67
2021/01/02 04:52:35;;;;;;;6.60;1.38;;;10.00;99.90;;;;;;5011232;28;20050;-67
2021/01/02 04:55:05;;;;;;;6.13;1.00;;;10.00;99.90;;;;;;5008897;28;20057;-67
2021/01/02 04:57:38;;;;;;;5.28;0.60;;;10.00;99.90;;;;;;5010430;28;20053;-66
2021/01/02 05:00:10;;;;;;;1.88;0.40;;;9.90;99.90;;;;;;5010106;28;20054;-66
2021/01/02 05:02:38;;;;;;;7.63;0.95;;;10.00;99.90;;;;;;5011074;28;20506;-66
2021/01/02 05:05:09;;;;;;;6.45;0.90;;;10.00;99.90;;;;;;5003763;28;20060;-66
2021/01/02 05:07:38;;;;;;;4.65;1.00;;;10.10;99.90;;;;;;4991294;28;20058;-66
2021/01/02 05:10:07;;;;;;;7.32;0.93;;;10.10;99.90;;;;;;4991436;28;20560;-67
2021/01/02 05:12:35;;;;;;;6.43;1.05;;;10.10;99.90;;;;;;4991338;28;20503;-67
2021/01/02 05:15:09;;;;;;;5.72;1.13;;;10.20;99.90;;;;;;4991314;28;20050;-68
2021/01/02 05:17:41;;;;;;;5.88;0.50;;;10.20;99.90;;;;;;4990317;28;20208;-67
2021/01/02 05:20:15;;;;;;;6.43;1.20;;;10.20;99.90;;;;;;4991133;28;20054;-67
2021/01/02 05:22:44;;;;;;;9.35;1.15;;;10.30;99.90;;;;;;4989774;28;20400;-67
2021/01/02 05:25:22;;;;;;;18.50;1.65;;;10.30;99.90;;;;;;4996109;28;20391;-68
2021/01/02 05:27:52;;;;;;;3.38;0.57;;;10.30;99.90;;;;;;5010662;28;20510;-68
2021/01/02 05:30:26;;;;;;;3.53;0.40;;;10.30;99.90;;;;;;5009479;28;20078;-67
2021/01/02 05:33:03;;;;;;;3.60;0.60;;;10.30;99.90;;;;;;5010628;28;20054;-68
2021/01/02 05:35:38;;;;;;;4.47;0.90;;;10.40;99.90;;;;;;5002147;28;20104;-68
2021/01/02 05:38:09;;;;;;;7.65;0.80;;;10.30;99.90;;;;;;4990507;28;20536;-68
2021/01/02 05:41:00;;;;;;;3.38;0.40;;;10.30;99.90;;;;;;4990581;28;20123;-67
2021/01/02 05:43:29;;;;;;;3.58;0.93;;;10.30;99.90;;;;;;5008983;28;20559;-67
2021/01/02 05:45:57;;;;;;;4.18;0.95;;;10.30;99.90;;;;;;5007959;28;20073;-67
2021/01/02 05:48:28;;;;;;;8.85;0.73;;;10.30;99.90;;;;;;5011574;28;20053;-67
2021/01/02 05:50:58;;;;;;;2.83;0.77;;;10.30;99.90;;;;;;4991929;28;20495;-67
2021/01/02 05:53:31;;;;;;;4.65;1.15;;;10.30;99.90;;;;;;4990765;28;20176;-67
2021/01/02 05:56:03;;;;;;;4.35;0.70;;;10.30;99.90;;;;;;4991728;28;20511;-67
2021/01/02 05:58:36;;;;;;;1.58;0.65;;;10.30;99.90;;;;;;4991078;28;20054;-67
2021/01/02 06:01:05;;;;;;;3.65;0.30;;;10.30;99.90;;;;;;4990786;28;20074;-68
2021/01/02 06:03:36;;;;;;;2.25;0.70;;;10.40;99.90;;;;;;4990844;28;20054;-67
2021/01/02 06:06:11;;;;;;;2.80;0.90;;;10.40;99.90;;;;;;4988696;28;20458;-68
2021/01/02 06:08:45;;;;;;;2.08;0.35;;;10.40;99.90;;;;;;4990822;28;20526;-67
2021/01/02 06:11:22;;;;;;;4.43;0.40;;;10.50;99.90;;;;;;4989609;28;20050;-67
2021/01/02 06:13:55;;;;;;;3.08;0.40;;;10.60;99.90;;;;;;4990850;28;20049;-68
2021/01/02 06:16:25;;;;;;;2.95;0.57;;;10.60;99.90;;;;;;4994848;28;20065;-67
2021/01/02 06:18:53;;;;;;;5.47;0.50;;;10.60;99.90;;;;;;5010140;28;20060;-67
2021/01/02 06:21:21;;;;;;;5.88;1.77;;;10.70;99.90;;;;;;5010035;28;20057;-67
2021/01/02 06:23:49;;;;;;;5.53;0.30;;;10.70;99.90;;;;;;5002661;28;20065;-67
2021/01/02 06:26:17;;;;;;;4.18;0.40;;;10.70;99.90;;;;;;4989835;28;20050;-68
2021/01/02 06:28:45;;;;;;;1.45;0.63;;;10.80;99.90;;;;;;4994167;28;20434;-66
2021/01/02 06:31:17;;;;;;;2.05;0.60;;;10.80;99.90;;;;;;5001428;28;20055;-67
2021/01/02 06:33:49;;;;;;;2.38;1.05;;;10.80;99.90;;;;;;4999706;28;20058;-68
2021/01/02 06:36:34;;;;;;;1.83;0.55;;;10.90;99.90;;;;;;5012469;28;20053;-68
2021/01/02 06:39:26;;;;;;;6.70;0.80;;;10.90;99.90;;;;;;5012185;28;20494;-68
2021/01/02 06:41:56;;;;;;;3.28;0.45;;;10.90;99.90;;;;;;5013144;28;20050;-68
2021/01/02 06:44:40;;;;;;;4.80;1.08;;;11.00;99.90;;;;;;5012492;28;20150;-68
2021/01/02 06:47:13;;;;;;;1.85;0.60;;;11.10;99.90;;;;;;5012498;28;20050;-68
2021/01/02 06:49:42;;;;;;;3.75;0.43;;;11.30;99.90;;;;;;5013528;28;20054;-68
2021/01/02 06:52:28;;;;;;;6.25;0.85;;;11.30;99.90;;;;;;5011139;28;20065;-68
2021/01/02 06:55:18;;;;;;;8.50;0.82;;;11.50;99.90;;;;;;4997070;28;20058;-68
2021/01/02 06:57:47;;;;;;;1.42;0.35;;;11.60;99.90;;;;;;4992313;28;20502;-68
2021/01/02 07:00:26;;;;;;;4.25;1.05;;;11.70;99.90;;;;;;4993616;28;20047;-68
2021/01/02 07:02:54;;;;;;;9.40;2.70;;;11.90;99.90;;;;;;5019022;28;20053;-67
2021/01/02 07:05:41;;;;;;;6.35;1.98;;;12.00;99.90;;;;;;5091902;28;20054;-68
2021/01/02 07:08:47;;;;;;;4.82;1.25;;;12.10;99.90;;;;;;5050922;28;20519;-68
2021/01/02 07:11:34;;;;;;;2.13;0.52;;;12.30;99.90;;;;;;4993482;28;20063;-68
2021/01/02 07:14:16;;;;;;;3.10;0.68;;;12.50;99.90;;;;;;5000127;28;20045;-68
2021/01/02 07:16:46;;;;;;;13.32;1.30;;;12.60;99.90;;;;;;5007792;28;20055;-68
2021/01/02 07:19:41;;;;;;;5.88;1.92;;;12.80;99.90;;;;;;4993361;28;20050;-68
2021/01/02 07:22:17;;;;;;;4.53;0.75;;;12.90;99.90;;;;;;4993031;28;20078;-68
2021/01/02 07:24:50;;;;;;;7.47;1.45;;;13.10;99.90;;;;;;5005164;28;20066;-69
2021/01/02 07:27:20;;;;;;;3.92;0.68;;;13.20;99.90;;;;;;5012543;28;20056;-68
2021/01/02 07:29:54;;;;;;;12.48;1.10;;;13.20;99.90;;;;;;5011250;28;20062;-68
2021/01/02 07:32:26;;;;;;;6.53;1.52;;;13.30;99.90;;;;;;5012436;28;20060;-68
2021/01/02 07:35:09;;;;;;;7.95;1.33;;;13.30;99.90;;;;;;5005484;28;20050;-68
2021/01/02 07:37:42;;;;;;;5.32;0.57;;;13.20;99.90;;;;;;5009532;28;20529;-68
2021/01/02 07:40:13;;;;;;;5.82;0.77;;;13.30;99.90;;;;;;5031256;28;20387;-67
2021/01/02 07:42:50;;;;;;;4.30;1.17;;;13.30;99.90;;;;;;5002974;28;20110;-67
2021/01/02 07:45:23;;;;;;;6.05;0.70;;;13.30;99.90;;;;;;5009474;28;20296;-67
2021/01/02 07:47:52;;;;;;;3.08;0.90;;;13.30;99.90;;;;;;5012832;28;20414;-67
2021/01/02 07:50:22;;;;;;;2.65;0.50;;;13.30;99.90;;;;;;5025396;28;20103;-67
2021/01/02 07:52:53;;;;;;;9.00;0.70;;;13.30;99.90;;;;;;5069271;28;20048;-67
2021/01/02 07:55:26;;;;;;;10.00;1.15;;;13.30;99.90;;;;;;5017435;28;20145;-68
2021/01/02 07:57:57;;;;;;;7.78;1.42;;;13.30;99.90;;;;;;4999402;28;20530;-67
2021/01/02 08:00:25;;;;;;;1.77;0.90;;;13.30;99.90;;;;;;4996053;28;20050;-66
2021/01/02 08:02:53;;;;;;;9.13;1.05;;;13.30;99.90;;;;;;5011810;28;20050;-66
2021/01/02 08:05:22;;;;;;;7.70;1.10;;;13.50;99.90;;;;;;5009296;28;20054;-66
2021/01/02 08:07:58;;;;;;;11.23;0.90;;;13.50;99.90;;;;;;5012193;28;20054;-67
2021/01/02 08:10:27;;;;;;;;;;;13.60;99.90;;;;;;5011795;28;20053;-67
2021/01/02 08:12:59;;;;;;;3.92;0.80;;;13.60;99.90;;;;;;5011267;28;20490;-67
2021/01/02 08:15:32;;;;;;;4.40;1.30;;;13.50;99.90;;;;;;5012769;28;20460;-67
2021/01/02 08:18:06;;;;;;;6.75;0.90;;;13.50;99.90;;;;;;5005928;28;20136;-67
2021/01/02 08:20:37;;;;;;;5.63;0.70;;;13.50;99.90;;;;;;4991468;28;20054;-67
2021/01/02 08:23:18;;;;;;;1.05;0.38;;;13.60;99.90;;;;;;4992716;28;20070;-67
2021/01/02 08:25:47;;;;;;;1.38;0.63;;;13.80;99.90;;;;;;4992702;28;20057;-66
2021/01/02 08:28:15;;;;;;;2.58;0.50;;;14.00;99.90;;;;;;5010466;28;20046;-67
2021/01/02 08:30:43;;;;;;;2.75;0.95;;;14.00;99.90;;;;;;5055664;28;20045;-67
2021/01/02 08:33:13;;;;;;;3.05;0.45;;;14.20;99.90;;;;;;5062475;28;20040;-66
2021/01/02 08:35:43;;;;;;;2.45;0.77;;;14.30;99.90;;;;;;5026422;28;20050;-67
2021/01/02 08:38:13;;;;;;;4.57;0.57;;;14.30;99.90;;;;;;5010651;28;20061;-66
2021/01/02 08:40:43;;;;;;;4.75;1.85;;;14.30;99.90;;;;;;5039128;28;20054;-67
2021/01/02 08:43:29;;;;;;;5.43;0.60;;;14.40;99.90;;;;;;4991890;28;20058;-66
2021/01/02 08:46:01;;;;;;;2.13;1.48;;;14.50;99.90;;;;;;5011983;28;20104;-66
2021/01/02 08:48:28;;;;;;;8.38;1.40;;;14.60;99.90;;;;;;5072936;28;20051;-66
2021/01/02 08:50:57;;;;;;;3.90;0.52;;;14.70;99.90;;;;;;5020944;28;20046;-67
2021/01/02 08:53:31;;;;;;;5.25;0.85;;;14.70;99.90;;;;;;5038177;28;20426;-67
2021/01/02 08:56:19;;;;;;;6.47;1.08;;;14.80;99.90;;;;;;4997713;28;20524;-67
2021/01/02 08:58:50;;;;;;;13.55;1.80;;;14.90;99.90;;;;;;4998340;28;20522;-66
2021/01/02 09:01:19;;;;;;;7.10;0.65;;;15.00;99.90;;;;;;5040755;28;20416;-67
2021/01/02 09:03:47;;;;;;;6.25;1.08;;;15.00;99.90;;;;;;5018413;28;20498;-66
2021/01/02 09:06:21;;;;;;;10.00;1.70;;;15.00;99.90;;;;;;5033827;28;20451;-67
2021/01/02 09:09:03;;;;;;;4.53;1.33;;;15.10;99.90;;;;;;5008136;28;20049;-67
2021/01/02 09:11:48;;;;;;;8.48;1.00;;;15.20;99.90;;;;;;5037231;28;20483;-67
2021/01/02 09:14:19;;;;;;;3.17;0.57;;;15.20;99.90;;;;;;5009958;28;20052;-67
2021/01/02 09:17:00;;;;;;;9.68;1.60;;;15.30;99.90;;;;;;5001680;28;20065;-68
2021/01/02 09:19:28;;;;;;;7.57;0.50;;;15.40;99.90;;;;;;5009037;28;20062;-68
2021/01/02 09:21:58;;;;;;;3.90;1.02;;;15.40;99.90;;;;;;5010690;28;20498;-68
2021/01/02 09:24:28;;;;;;;2.67;0.80;;;15.40;99.90;;;;;;5008851;28;20142;-68
2021/01/02 09:26:56;;;;;;;4.20;0.93;;;15.40;99.90;;;;;;5026917;28;20049;-68
2021/01/02 09:29:24;;;;;;;2.70;1.02;;;15.40;99.90;;;;;;5008412;28;20066;-68
2021/01/02 09:31:52;;;;;;;5.50;0.90;;;15.40;99.90;;;;;;5009374;28;20057;-68
2021/01/02 09:34:21;;;;;;;7.22;1.45;;;15.40;99.90;;;;;;5008779;28;20042;-68
2021/01/02 09:36:51;;;;;;;9.15;1.98;;;15.50;99.90;;;;;;5009378;28;20483;-68
2021/01/02 09:39:23;;;;;;;6.15;1.40;;;15.60;99.90;;;;;;5002940;28;20448;-68
2021/01/02 09:41:51;;;;;;;9.40;0.88;;;15.70;99.90;;;;;;5008915;28;20517;-67
2021/01/02 09:44:19;;;;;;;4.50;1.30;;;15.60;99.90;;;;;;5008919;28;20129;-67
2021/01/02 09:46:51;;;;;;;5.05;1.05;;;15.50;99.90;;;;;;5017765;28;20081;-67
2021/01/02 09:49:21;;;;;;;3.72;0.75;;;15.20;99.90;;;;;;5022214;28;20069;-67
2021/01/02 09:51:49;;;;;;;2.50;0.93;;;15.00;99.90;;;;;;5074325;28;20100;-67
2021/01/02 09:54:20;;;;;;;6.38;1.52;;;14.90;99.90;;;;;;5008926;28;20104;-68
2021/01/02 09:56:53;;;;;;;13.02;1.25;;;14.80;99.90;;;;;;4999441;28;20407;-68
2021/01/02 09:59:21;;;;;;;7.25;0.85;;;14.80;99.90;;;;;;5009089;28;20514;-68
2021/01/02 10:01:52;;;;;;;5.90;1.00;;;14.70;99.90;;;;;;5063696;28;20056;-68
2021/01/02 10:04:23;;;;;;;2.63;0.75;;;14.80;99.90;;;;;;5011697;28;20062;-68
2021/01/02 10:06:50;;;;;;;7.53;1.35;;;14.90;99.90;;;;;;5014269;28;20042;-67
2021/01/02 10:09:18;;;;;;;7.10;0.70;;;15.00;99.90;;;;;;5014329;28;20129;-68
2021/01/02 10:11:46;;;;;;;2.47;0.60;;;15.10;99.90;;;;;;5016238;28;20056;-68
2021/01/02 10:14:14;;;;;;;4.50;0.85;;;15.20;99.90;;;;;;5022846;28;20129;-68
2021/01/02 10:16:42;;;;;;;14.63;2.53;;;15.30;99.90;;;;;;5030368;28;20053;-67
2021/01/02 10:19:11;;;;;;;21.08;2.85;;;15.40;99.90;;;;;;4998496;28;20055;-68
2021/01/02 10:21:39;;;;;;;3.88;0.82;;;15.50;99.90;;;;;;5030510;28;20510;-68
2021/01/02 10:24:08;;;;;;;10.18;2.83;;;15.70;99.90;;;;;;5014608;28;20053;-68
2021/01/02 10:26:36;;;;;;;5.57;0.75;;;15.80;99.90;;;;;;5018826;28;20519;-67
2021/01/02 10:29:04;;;;;;;6.82;0.50;;;15.90;99.90;;;;;;5014343;28;20046;-67
2021/01/02 10:31:34;;;;;;;1.50;0.50;;;15.90;99.90;;;;;;5019994;28;20445;-67
2021/01/02 10:34:02;;;;;;;1.70;0.60;;;16.00;99.90;;;;;;5013505;28;20129;-67
2021/01/02 10:36:33;;;;;;;2.95;0.50;;;16.00;99.90;;;;;;5012175;28;20069;-68
2021/01/02 10:39:01;;;;;;;1.98;0.52;;;16.00;99.90;;;;;;5002687;28;20053;-68
2021/01/02 10:41:33;;;;;;;7.28;0.77;;;15.90;99.90;;;;;;5017269;28;20568;-69
2021/01/02 10:44:02;;;;;;;7.05;4.20;;;16.00;99.90;;;;;;5020775;28;20140;-73
2021/01/02 10:46:30;;;;;;;4.13;1.27;;;16.10;99.90;;;;;;5011476;28;20050;-68
2021/01/02 10:48:58;;;;;;;6.43;1.40;;;16.10;99.90;;;;;;5013102;28;20085;-69
2021/01/02 10:51:31;;;;;;;2.33;0.98;;;16.00;99.90;;;;;;5007837;28;20085;-68
2021/01/02 10:54:02;;;;;;;2.72;1.40;;;16.00;99.90;;;;;;4995414;28;20058;-68
2021/01/02 10:56:30;;;;;;;6.63;1.35;;;15.80;99.90;;;;;;4992942;28;20108;-68
2021/01/02 10:59:07;;;;;;;3.65;0.93;;;15.60;99.90;;;;;;5003005;28;20054;-69
2021/01/02 11:01:46;;;;;;;7.05;1.00;;;15.50;99.90;;;;;;5002828;28;20422;-69
2021/01/02 11:04:16;;;;;;;3.13;1.60;;;15.40;99.90;;;;;;5007871;28;20511;-69
2021/01/02 11:06:45;;;;;;;5.32;1.55;;;15.40;99.90;;;;;;4996406;28;20050;-69
2021/01/02 11:09:14;;;;;;;5.57;1.30;;;15.40;99.90;;;;;;5011838;28;20041;-68
2021/01/02 11:11:46;;;;;;;6.20;0.68;;;15.50;99.90;;;;;;5012241;28;20057;-69
2021/01/02 11:14:14;;;;;;;6.60;1.33;;;15.60;99.90;;;;;;5010741;28;20047;-69
2021/01/02 11:16:44;;;;;;;9.90;1.25;;;15.70;99.90;;;;;;5011215;28;20058;-68
2021/01/02 11:19:21;;;;;;;3.03;0.65;;;15.60;99.90;;;;;;5000184;28;20054;-70
2021/01/02 11:21:52;;;;;;;7.95;1.25;;;15.60;99.90;;;;;;5011313;28;20117;-72
2021/01/02 11:24:23;;;;;;;2.00;0.30;;;15.70;99.90;;;;;;4975532;28;20068;-71
2021/01/02 11:26:54;;;;;;;8.32;0.82;;;15.60;99.90;;;;;;5009461;28;20485;-67
2021/01/02 11:29:24;;;;;;;2.10;0.52;;;15.50;99.90;;;;;;4997712;28;20054;-67
2021/01/02 11:31:53;;;;;;;2.70;1.05;;;15.40;99.90;;;;;;4994257;28;20126;-67
2021/01/02 11:34:24;;;;;;;12.52;2.47;;;15.30;99.90;;;;;;5010011;28;20054;-69
2021/01/02 11:36:58;;;;;;;5.15;0.75;;;15.30;99.90;;;;;;4995543;28;20060;-69
2021/01/02 11:39:27;;;;;;;8.95;1.48;;;15.40;99.90;;;;;;5008525;28;20054;-68
2021/01/02 11:41:55;;;;;;;10.60;2.45;;;15.40;99.90;;;;;;4995617;28;20081;-68
2021/01/02 11:44:25;;;;;;;7.50;0.95;;;15.50;99.90;;;;;;5011603;28;20065;-69
2021/01/02 11:46:56;;;;;;;3.85;1.70;;;15.50;99.90;;;;;;5019090;28;20089;-68
2021/01/02 11:49:27;;;;;;;11.93;2.13;;;15.70;99.90;;;;;;4992544;28;20064;-68
2021/01/02 11:51:56;;;;;;;5.57;1.45;;;15.80;99.90;;;;;;4996183;28;20467;-68
2021/01/02 11:54:26;;;;;;;6.72;1.30;;;15.80;99.90;;;;;;4990607;28;20096;-69
2021/01/02 11:56:54;;;;;;;6.78;1.25;;;15.80;99.90;;;;;;4991693;28;20076;-68
2021/01/02 11:59:24;;;;;;;5.80;1.08;;;16.00;99.90;;;;;;4991166;28;20069;-70
2021/01/02 12:02:00;;;;;;;3.55;1.17;;;16.30;99.90;;;;;;5004775;28;20053;-67
2021/01/02 12:04:30;;;;;;;5.20;1.08;;;16.30;99.90;;;;;;5000968;28;20166;-68
2021/01/02 12:07:00;;;;;;;4.78;1.10;;;16.20;99.90;;;;;;5005234;28;20186;-66
2021/01/02 12:09:29;;;;;;;3.75;1.42;;;16.00;99.90;;;;;;5014827;28;20055;-67
2021/01/02 12:11:58;;;;;;;8.65;1.15;;;15.80;99.90;;;;;;4991075;28;20094;-67
2021/01/02 12:14:31;;;;;;;4.97;1.23;;;15.60;99.90;;;;;;4993415;28;20058;-67
2021/01/02 12:17:01;;;;;;;5.55;1.70;;;15.50;99.90;;;;;;4992117;28;20423;-67
2021/01/02 12:19:31;;;;;;;4.60;2.03;;;15.50;99.90;;;;;;5002404;28;20054;-67
2021/01/02 12:22:04;;;;;;;4.68;1.77;;;15.40;99.90;;;;;;4990715;28;20054;-66
2021/01/02 12:24:33;;;;;;;4.35;1.38;;;15.40;99.90;;;;;;5004924;28;20046;-67
2021/01/02 12:27:04;;;;;;;6.35;1.40;;;15.50;99.90;;;;;;5015902;28;20076;-69
2021/01/02 12:29:33;;;;;;;12.60;5.60;;;15.50;99.90;;;;;;5025879;28;20124;-67
2021/01/02 12:32:05;;;;;;;8.63;4.10;;;15.40;99.90;;;;;;5030953;28;20062;-69
2021/01/02 12:34:36;;;;;;;12.25;4.78;;;15.40;99.90;;;;;;5022675;28;20485;-68
2021/01/02 12:37:10;;;;;;;9.38;3.67;;;15.50;99.90;;;;;;5012064;28;20065;-67
2021/01/02 12:39:39;;;;;;;9.05;2.70;;;15.50;99.90;;;;;;5030815;28;20492;-70
2021/01/02 12:42:07;;;;;;;7.53;3.80;;;15.60;99.90;;;;;;5020704;28;20069;-68
2021/01/02 12:44:35;;;;;;;11.15;4.93;;;15.80;99.90;;;;;;5001738;28;20083;-67
2021/01/02 12:47:10;;;;;;;17.15;8.00;;;15.80;99.90;;;;;;4995232;28;20398;-67
2021/01/02 12:49:40;;;;;;;28.23;15.35;;;15.80;99.90;;;;;;5017768;28;20057;-66
2021/01/02 12:52:08;;;;;;;28.23;13.15;;;15.70;99.90;;;;;;5011391;28;20067;-67
2021/01/02 12:54:37;;;;;;;34.70;16.48;;;15.70;99.90;;;;;;5034217;28;20625;-66
2021/01/02 12:57:06;;;;;;;15.60;5.82;;;15.60;99.90;;;;;;5059729;28;20042;-68
2021/01/02 12:59:36;;;;;;;8.25;3.47;;;15.50;99.90;;;;;;5065237;28;20047;-70
2021/01/02 13:02:08;;;;;;;8.02;4.53;;;15.50;99.90;;;;;;5021917;28;20052;-66
2021/01/02 13:04:39;;;;;;;19.77;8.35;;;15.40;99.90;;;;;;5039136;27;20077;-66
2021/01/02 13:07:08;;;;;;;14.30;6.70;;;15.40;99.90;;;;;;5009172;28;20034;-66
2021/01/02 13:09:36;;;;;;;27.15;11.43;;;15.40;99.90;;;;;;5010467;28;20058;-66
2021/01/02 13:12:05;;;;;;;19.15;8.80;;;15.30;99.90;;;;;;5008292;28;20099;-66
2021/01/02 13:14:41;;;;;;;18.67;7.85;;;15.30;99.90;;;;;;5016565;28;20455;-66